createdAt,value
2019-06-08T00:00:02.182Z,96.70
2019-06-08T00:02:33.551Z,96.80
2019-06-08T00:05:04.451Z,96.90
2019-06-08T00:07:35.109Z,97.10
2019-06-08T00:10:06.640Z,97.00
2019-06-08T00:12:37.421Z,97.00
2019-06-08T00:15:08.582Z,97.00
2019-06-08T00:17:39.449Z,97.10
2019-06-08T00:20:13.467Z,97.30
2019-06-08T00:22:44.761Z,97.40
2019-06-08T00:25:15.782Z,97.30
2019-06-08T00:27:46.527Z,97.30
2019-06-08T00:30:18.713Z,97.60
2019-06-08T00:32:49.335Z,97.60
2019-06-08T00:35:20.806Z,97.60
2019-06-08T00:37:51.498Z,97.80
2019-06-08T00:40:23.098Z,97.60
2019-06-08T00:42:53.603Z,97.60
2019-06-08T00:45:25.574Z,97.80
2019-06-08T00:47:56.448Z,97.90
2019-06-08T00:50:27.343Z,98.10
2019-06-08T00:52:57.893Z,98.10
2019-06-08T00:55:29.772Z,98.10
2019-06-08T00:58:00.504Z,98.30
2019-06-08T01:00:31.056Z,98.20
2019-06-08T01:03:01.667Z,98.50
2019-06-08T01:05:32.490Z,98.40
2019-06-08T01:08:03.720Z,98.40
2019-06-08T01:10:34.543Z,98.50
2019-06-08T01:13:05.230Z,98.70
2019-06-08T01:15:35.904Z,98.70
2019-06-08T01:18:06.623Z,98.60
2019-06-08T01:20:37.344Z,98.60
2019-06-08T01:23:07.824Z,98.40
2019-06-08T01:25:38.717Z,98.40
2019-06-08T01:28:09.492Z,98.40
2019-06-08T01:30:40.068Z,98.60
2019-06-08T01:33:11.113Z,98.60
2019-06-08T01:35:41.618Z,98.50
2019-06-08T01:38:12.422Z,98.40
2019-06-08T01:40:42.955Z,98.20
2019-06-08T01:43:14.045Z,98.20
2019-06-08T01:45:44.752Z,98.40
2019-06-08T01:48:19.857Z,98.50
2019-06-08T01:50:48.029Z,98.30
2019-06-08T01:53:18.527Z,98.40
2019-06-08T01:55:49.003Z,98.80
2019-06-08T01:58:19.670Z,99.40
2019-06-08T02:00:50.581Z,99.60
2019-06-08T02:03:21.117Z,99.50
2019-06-08T02:05:51.719Z,99.20
2019-06-08T02:08:22.160Z,99.30
2019-06-08T02:10:52.725Z,99.50
2019-06-08T02:13:24.803Z,99.40
2019-06-08T02:15:55.626Z,99.50
2019-06-08T02:18:36.380Z,99.40
2019-06-08T02:20:58.903Z,99.60
2019-06-08T02:23:29.558Z,99.70
2019-06-08T02:26:00.089Z,99.40
2019-06-08T02:28:31.554Z,99.20
2019-06-08T02:31:02.415Z,98.70
2019-06-08T02:33:34.662Z,98.80
2019-06-08T02:36:05.251Z,98.70
2019-06-08T02:38:36.203Z,98.70
2019-06-08T02:41:07.519Z,99.00
2019-06-08T02:43:40.049Z,99.20
2019-06-08T02:46:10.274Z,99.50
2019-06-08T02:49:00.319Z,99.40
2019-06-08T02:51:13.933Z,99.40
2019-06-08T02:53:44.625Z,99.30
2019-06-08T02:56:16.042Z,99.20
2019-06-08T02:58:47.560Z,99.30
2019-06-08T03:01:19.843Z,98.70
2019-06-08T03:03:53.052Z,98.80
2019-06-08T03:06:25.002Z,98.70
2019-06-08T03:08:57.593Z,98.60
2019-06-08T03:11:28.112Z,98.40
2019-06-08T03:13:59.120Z,98.30
2019-06-08T03:16:31.239Z,98.40
2019-06-08T03:19:19.984Z,98.30
2019-06-08T03:21:35.649Z,98.20
2019-06-08T03:24:06.390Z,98.20
2019-06-08T03:26:39.697Z,98.10
2019-06-08T03:29:09.430Z,98.00
2019-06-08T03:31:53.970Z,97.70
2019-06-08T03:34:13.202Z,97.70
2019-06-08T03:36:54.868Z,97.70
2019-06-08T03:39:16.347Z,97.70
2019-06-08T03:41:47.041Z,97.50
2019-06-08T03:44:17.679Z,97.50
2019-06-08T03:46:48.168Z,97.60
2019-06-08T03:49:18.614Z,97.70
2019-06-08T03:51:49.296Z,97.60
2019-06-08T03:54:20.920Z,97.40
2019-06-08T03:56:51.431Z,97.30
2019-06-08T03:59:22.130Z,97.30
2019-06-08T04:01:54.232Z,97.00
2019-06-08T04:04:25.317Z,96.80
2019-06-08T04:06:55.815Z,96.70
2019-06-08T04:09:26.813Z,96.50
2019-06-08T04:11:57.507Z,96.60
2019-06-08T04:14:28.628Z,96.30
2019-06-08T04:17:00.425Z,96.30
2019-06-08T04:19:31.002Z,95.80
2019-06-08T04:22:01.612Z,95.00
2019-06-08T04:24:32.454Z,94.00
2019-06-08T04:27:03.721Z,93.00
2019-06-08T04:29:34.136Z,91.70
2019-06-08T04:32:04.999Z,90.40
2019-06-08T04:34:35.549Z,88.70
2019-06-08T04:37:06.326Z,85.80
2019-06-08T04:39:38.249Z,82.20
2019-06-08T04:42:09.404Z,77.50
2019-06-08T04:44:40.470Z,74.70
2019-06-08T04:47:11.077Z,74.00
2019-06-08T04:49:43.070Z,71.90
2019-06-08T04:52:13.732Z,69.90
2019-06-08T04:54:45.086Z,67.40
2019-06-08T04:57:16.108Z,66.90
2019-06-08T04:59:48.350Z,63.60
2019-06-08T05:02:18.920Z,60.50
2019-06-08T05:04:49.604Z,58.90
2019-06-08T05:07:20.309Z,57.60
2019-06-08T05:09:50.896Z,57.10
2019-06-08T05:12:21.472Z,55.80
2019-06-08T05:14:51.877Z,55.50
2019-06-08T05:17:22.450Z,55.00
2019-06-08T05:19:53.009Z,55.60
2019-06-08T05:22:23.493Z,53.40
2019-06-08T05:24:54.085Z,52.30
2019-06-08T05:27:24.693Z,52.30
2019-06-08T05:29:55.280Z,51.80
2019-06-08T05:32:25.989Z,50.80
2019-06-08T05:34:56.670Z,50.30
2019-06-08T05:37:27.328Z,49.70
2019-06-08T05:39:58.604Z,48.20
2019-06-08T05:42:29.077Z,47.50
2019-06-08T05:44:59.858Z,46.90
2019-06-08T05:47:30.515Z,46.30
2019-06-08T05:50:01.409Z,47.20
2019-06-08T05:52:32.131Z,46.40
2019-06-08T05:55:03.113Z,46.40
2019-06-08T05:57:33.937Z,45.90
2019-06-08T06:00:08.882Z,45.30
2019-06-08T06:02:37.281Z,44.30
2019-06-08T06:05:09.177Z,42.10
2019-06-08T06:07:40.641Z,42.60
2019-06-08T06:10:11.856Z,42.20
2019-06-08T06:12:43.008Z,42.40
2019-06-08T06:15:16.163Z,40.80
2019-06-08T06:17:48.039Z,37.70
2019-06-08T06:20:18.873Z,38.20
2019-06-08T06:22:49.592Z,37.30
2019-06-08T06:25:21.266Z,36.40
2019-06-08T06:27:52.245Z,35.50
2019-06-08T06:30:22.972Z,35.50
2019-06-08T06:32:53.604Z,35.80
2019-06-08T06:35:25.136Z,35.50
2019-06-08T06:37:55.716Z,34.80
2019-06-08T06:40:26.321Z,35.10
2019-06-08T06:42:56.821Z,34.00
2019-06-08T06:45:27.368Z,34.30
2019-06-08T06:47:57.850Z,34.40
2019-06-08T06:50:28.689Z,34.60
2019-06-08T06:52:59.394Z,34.40
2019-06-08T06:55:29.937Z,33.50
2019-06-08T06:58:00.719Z,34.30
2019-06-08T07:00:32.417Z,33.20
2019-06-08T07:03:03.141Z,34.20
2019-06-08T07:05:34.292Z,33.90
2019-06-08T07:08:04.829Z,33.80
2019-06-08T07:10:35.341Z,34.30
2019-06-08T07:13:06.293Z,34.00
2019-06-08T07:15:41.785Z,33.50
2019-06-08T07:18:08.919Z,33.80
2019-06-08T07:20:39.924Z,33.30
2019-06-08T07:23:10.524Z,33.30
2019-06-08T07:25:41.155Z,33.50
2019-06-08T07:28:11.704Z,33.20
2019-06-08T07:30:42.370Z,33.10
2019-06-08T07:33:12.912Z,33.40
2019-06-08T07:35:43.623Z,33.70
2019-06-08T07:38:14.244Z,34.60
2019-06-08T07:40:44.764Z,35.30
2019-06-08T07:43:15.342Z,35.50
2019-06-08T07:45:46.071Z,34.80
2019-06-08T07:48:16.889Z,34.90
2019-06-08T07:50:48.393Z,34.30
2019-06-08T07:53:18.951Z,34.10
2019-06-08T07:55:50.057Z,33.20
2019-06-08T07:58:21.102Z,34.10
2019-06-08T08:00:52.947Z,34.40
2019-06-08T08:03:23.883Z,35.20
2019-06-08T08:05:56.612Z,35.80
2019-06-08T08:08:28.512Z,35.60
2019-06-08T08:11:00.901Z,35.70
2019-06-08T08:13:31.616Z,35.60
2019-06-08T08:16:02.214Z,35.20
2019-06-08T08:18:33.042Z,35.40
2019-06-08T08:21:14.378Z,35.70
2019-06-08T08:23:38.164Z,36.50
2019-06-08T08:26:08.305Z,37.30
2019-06-08T08:28:38.859Z,37.60
2019-06-08T08:31:11.458Z,37.60
2019-06-08T08:33:41.671Z,37.20
2019-06-08T08:36:12.235Z,37.80
2019-06-08T08:38:42.824Z,39.00
2019-06-08T08:41:13.295Z,39.30
2019-06-08T08:43:43.916Z,39.50
2019-06-08T08:46:14.683Z,39.70
2019-06-08T08:48:45.292Z,40.10
2019-06-08T08:51:17.959Z,40.00
2019-06-08T08:53:53.872Z,40.20
2019-06-08T08:56:20.748Z,41.50
2019-06-08T08:58:52.419Z,41.10
2019-06-08T09:01:24.049Z,41.30
2019-06-08T09:03:57.132Z,41.30
2019-06-08T09:06:28.006Z,40.50
2019-06-08T09:09:01.718Z,40.70
2019-06-08T09:11:31.514Z,41.00
2019-06-08T09:14:07.121Z,41.60
2019-06-08T09:16:35.060Z,42.20
2019-06-08T09:19:08.303Z,40.80
2019-06-08T09:21:38.457Z,41.90
2019-06-08T09:24:09.228Z,42.10
2019-06-08T09:26:39.787Z,42.30
2019-06-08T09:29:11.408Z,42.30
2019-06-08T09:31:42.299Z,41.80
2019-06-08T09:34:15.453Z,43.10
2019-06-08T09:36:47.628Z,42.60
2019-06-08T09:39:18.550Z,42.40
2019-06-08T09:41:49.246Z,42.60
2019-06-08T09:44:20.102Z,43.50
2019-06-08T09:46:50.847Z,43.60
2019-06-08T09:49:21.422Z,42.90
2019-06-08T09:51:53.831Z,42.60
2019-06-08T09:54:24.698Z,42.60
2019-06-08T09:56:55.794Z,42.10
2019-06-08T09:59:28.428Z,42.20
2019-06-08T10:02:05.165Z,42.60
2019-06-08T10:04:31.564Z,43.10
2019-06-08T10:07:03.893Z,43.30
2019-06-08T10:09:34.898Z,44.00
2019-06-08T10:12:07.320Z,44.40
2019-06-08T10:14:38.131Z,44.60
2019-06-08T10:17:09.219Z,45.20
2019-06-08T10:19:39.749Z,45.50
2019-06-08T10:22:10.492Z,45.50
2019-06-08T10:24:41.509Z,44.50
2019-06-08T10:27:12.261Z,45.00
2019-06-08T10:29:43.127Z,45.00
2019-06-08T10:32:17.906Z,44.70
2019-06-08T10:34:48.144Z,44.10
2019-06-08T10:37:18.881Z,46.40
2019-06-08T10:39:49.479Z,46.60
2019-06-08T10:42:21.153Z,46.80
2019-06-08T10:44:51.939Z,45.90
2019-06-08T10:47:22.745Z,46.50
2019-06-08T10:49:53.433Z,44.90
2019-06-08T10:52:23.962Z,44.40
2019-06-08T10:54:54.539Z,44.20
2019-06-08T10:57:27.877Z,45.90
2019-06-08T10:59:59.786Z,45.70
2019-06-08T11:02:30.575Z,46.70
2019-06-08T11:05:04.740Z,46.50
2019-06-08T11:07:33.882Z,47.00
2019-06-08T11:10:06.308Z,46.90
2019-06-08T11:12:37.739Z,47.80
2019-06-08T11:15:11.580Z,47.20
2019-06-08T11:17:40.805Z,47.50
2019-06-08T11:20:13.617Z,46.90
2019-06-08T11:22:43.850Z,45.70
2019-06-08T11:25:16.734Z,45.50
2019-06-08T11:27:47.526Z,46.10
2019-06-08T11:30:23.751Z,45.30
2019-06-08T11:32:51.122Z,45.50
2019-06-08T11:35:21.881Z,45.70
2019-06-08T11:37:52.805Z,44.90
2019-06-08T11:40:24.181Z,46.30
2019-06-08T11:42:54.760Z,46.80
2019-06-08T11:45:26.699Z,48.30
2019-06-08T11:47:58.421Z,47.80
2019-06-08T11:50:41.429Z,48.80
2019-06-08T11:53:14.075Z,48.00
2019-06-08T11:55:44.226Z,48.60
2019-06-08T11:58:22.177Z,47.70
2019-06-08T12:01:01.001Z,47.10
2019-06-08T12:03:30.520Z,47.80
2019-06-08T12:06:02.166Z,47.10
2019-06-08T12:08:33.298Z,46.90
2019-06-08T12:11:05.397Z,44.50
2019-06-08T12:13:36.330Z,46.10
2019-06-08T12:16:09.363Z,45.50
2019-06-08T12:18:40.337Z,46.40
2019-06-08T12:21:12.596Z,45.90
2019-06-08T12:23:43.422Z,45.90
2019-06-08T12:26:14.543Z,47.00
2019-06-08T12:28:45.497Z,47.50
2019-06-08T12:31:21.449Z,47.90
2019-06-08T12:33:48.760Z,47.10
2019-06-08T12:36:20.697Z,48.00
2019-06-08T12:38:52.012Z,47.50
2019-06-08T12:41:22.601Z,46.80
2019-06-08T12:43:53.074Z,47.90
2019-06-08T12:46:23.578Z,47.00
2019-06-08T12:48:54.022Z,49.00
2019-06-08T12:51:24.746Z,49.30
2019-06-08T12:53:59.880Z,49.80
2019-06-08T12:56:28.923Z,49.60
2019-06-08T12:58:59.668Z,49.30
2019-06-08T13:01:30.559Z,49.40
2019-06-08T13:04:01.079Z,49.50
2019-06-08T13:06:31.651Z,50.40
2019-06-08T13:09:02.350Z,50.10
2019-06-08T13:11:34.437Z,49.90
2019-06-08T13:14:04.985Z,50.60
2019-06-08T13:16:38.092Z,49.50
2019-06-08T13:19:09.203Z,49.00
2019-06-08T13:21:40.504Z,49.20
2019-06-08T13:24:11.376Z,49.20
2019-06-08T13:26:42.124Z,49.00
2019-06-08T13:29:13.722Z,49.60
2019-06-08T13:31:44.393Z,49.30
2019-06-08T13:34:16.637Z,48.40
2019-06-08T13:36:48.474Z,49.40
2019-06-08T13:39:21.236Z,49.20
2019-06-08T13:41:52.166Z,48.50
2019-06-08T13:44:22.862Z,49.50
2019-06-08T13:46:53.639Z,49.90
2019-06-08T13:49:29.631Z,50.50
2019-06-08T13:51:58.350Z,51.60
2019-06-08T13:54:31.292Z,51.40
2019-06-08T13:57:01.987Z,50.00
2019-06-08T13:59:32.663Z,51.10
2019-06-08T14:02:03.470Z,51.80
2019-06-08T14:04:34.231Z,50.70
2019-06-08T14:07:07.740Z,50.60
2019-06-08T14:09:38.426Z,51.60
2019-06-08T14:12:09.263Z,52.10
2019-06-08T14:14:40.013Z,51.90
2019-06-08T14:17:11.515Z,52.40
2019-06-08T14:19:42.429Z,52.20
2019-06-08T14:22:12.866Z,52.20
2019-06-08T14:24:43.912Z,53.10
2019-06-08T14:27:14.515Z,52.60
2019-06-08T14:29:45.242Z,52.80
2019-06-08T14:32:18.808Z,52.80
2019-06-08T14:34:50.224Z,53.50
2019-06-08T14:37:20.143Z,54.40
2019-06-08T14:39:50.962Z,54.00
2019-06-08T14:42:25.998Z,52.20
2019-06-08T14:44:53.968Z,52.70
2019-06-08T14:47:24.820Z,54.50
2019-06-08T14:49:55.288Z,56.90
2019-06-08T14:52:28.097Z,56.50
2019-06-08T14:54:58.699Z,56.00
2019-06-08T14:57:30.909Z,56.80
2019-06-08T15:00:08.317Z,57.50
2019-06-08T15:02:33.983Z,58.50
2019-06-08T15:05:07.644Z,58.80
2019-06-08T15:07:38.815Z,58.60
2019-06-08T15:10:10.095Z,58.10
2019-06-08T15:12:40.695Z,59.10
2019-06-08T15:15:11.516Z,59.10
2019-06-08T15:17:42.357Z,59.80
2019-06-08T15:20:13.064Z,59.20
2019-06-08T15:22:43.496Z,59.70
2019-06-08T15:25:14.427Z,59.80
2019-06-08T15:27:44.933Z,60.30
2019-06-08T15:30:17.466Z,59.50
2019-06-08T15:32:48.106Z,60.10
2019-06-08T15:35:19.187Z,60.20
2019-06-08T15:37:49.729Z,60.10
2019-06-08T15:40:21.470Z,60.50
2019-06-08T15:42:52.283Z,60.80
2019-06-08T15:45:24.023Z,61.10
2019-06-08T15:47:54.993Z,60.80
2019-06-08T15:50:26.239Z,59.60
2019-06-08T15:52:59.811Z,59.90
2019-06-08T15:55:31.909Z,60.10
2019-06-08T15:58:01.948Z,60.50
2019-06-08T16:00:34.173Z,60.10
2019-06-08T16:03:05.098Z,59.70
2019-06-08T16:05:35.587Z,59.40
2019-06-08T16:08:06.076Z,59.10
2019-06-08T16:10:36.889Z,59.20
2019-06-08T16:13:07.502Z,59.80
2019-06-08T16:15:38.149Z,60.00
2019-06-08T16:18:09.647Z,59.80
2019-06-08T16:20:40.227Z,60.10
2019-06-08T16:23:10.728Z,60.10
2019-06-08T16:25:41.189Z,60.50
2019-06-08T16:28:11.778Z,60.70
2019-06-08T16:30:42.327Z,61.00
2019-06-08T16:33:13.959Z,61.20
2019-06-08T16:35:44.773Z,60.90
2019-06-08T16:38:15.550Z,60.30
2019-06-08T16:40:46.222Z,61.00
2019-06-08T16:43:17.091Z,60.90
2019-06-08T16:45:47.705Z,61.80
2019-06-08T16:48:18.453Z,61.30
2019-06-08T16:50:48.966Z,61.50
2019-06-08T16:53:19.478Z,61.30
2019-06-08T16:55:50.001Z,61.40
2019-06-08T16:58:20.505Z,61.70
2019-06-08T17:00:51.214Z,61.80
2019-06-08T17:03:22.125Z,61.80
2019-06-08T17:05:52.689Z,62.20
2019-06-08T17:08:23.392Z,62.60
2019-06-08T17:10:55.060Z,63.00
2019-06-08T17:13:25.877Z,63.60
2019-06-08T17:15:56.944Z,63.70
2019-06-08T17:18:27.684Z,63.70
2019-06-08T17:20:58.298Z,63.60
2019-06-08T17:23:30.295Z,63.80
2019-06-08T17:26:01.454Z,63.50
2019-06-08T17:28:33.215Z,64.20
2019-06-08T17:31:03.813Z,63.50
2019-06-08T17:33:35.267Z,63.70
2019-06-08T17:36:05.906Z,63.80
2019-06-08T17:38:37.205Z,64.40
2019-06-08T17:41:08.176Z,64.40
2019-06-08T17:43:38.736Z,64.70
2019-06-08T17:46:09.270Z,65.10
2019-06-08T17:48:40.714Z,65.10
2019-06-08T17:51:11.273Z,65.40
2019-06-08T17:53:43.182Z,65.40
2019-06-08T17:56:14.345Z,65.80
2019-06-08T17:58:44.991Z,66.20
2019-06-08T18:01:15.470Z,66.80
2019-06-08T18:03:48.155Z,67.40
2019-06-08T18:06:18.557Z,68.00
2019-06-08T18:08:49.351Z,68.10
2019-06-08T18:11:19.981Z,68.80
2019-06-08T18:13:50.561Z,68.80
2019-06-08T18:16:21.943Z,68.90
2019-06-08T18:18:52.391Z,69.40
2019-06-08T18:21:22.838Z,70.10
2019-06-08T18:23:53.281Z,70.30
2019-06-08T18:26:24.051Z,70.90
2019-06-08T18:28:55.158Z,71.10
2019-06-08T18:31:27.634Z,71.20
2019-06-08T18:34:01.262Z,71.50
2019-06-08T18:36:30.984Z,71.90
2019-06-08T18:39:01.644Z,72.60
2019-06-08T18:41:34.901Z,72.80
2019-06-08T18:44:08.237Z,73.60
2019-06-08T18:46:39.369Z,73.60
2019-06-08T18:49:10.003Z,74.20
2019-06-08T18:51:42.453Z,74.80
2019-06-08T18:54:14.868Z,74.80
2019-06-08T18:56:46.704Z,75.30
2019-06-08T18:59:18.349Z,75.60
2019-06-08T19:01:49.907Z,76.10
2019-06-08T19:04:21.613Z,75.80
2019-06-08T19:06:52.812Z,76.40
2019-06-08T19:09:24.339Z,76.50
2019-06-08T19:11:57.306Z,76.90
2019-06-08T19:14:29.022Z,77.20
2019-06-08T19:16:59.918Z,77.40
2019-06-08T19:19:31.451Z,77.50
2019-06-08T19:22:02.464Z,77.50
2019-06-08T19:24:33.281Z,77.60
2019-06-08T19:27:04.136Z,77.90
2019-06-08T19:29:34.761Z,78.50
2019-06-08T19:32:07.301Z,78.90
2019-06-08T19:34:39.156Z,79.40
2019-06-08T19:37:09.931Z,80.10
2019-06-08T19:39:44.155Z,80.40
2019-06-08T19:42:14.229Z,80.70
2019-06-08T19:44:57.617Z,80.60
2019-06-08T19:47:17.622Z,80.10
2019-06-08T19:49:54.460Z,79.40
2019-06-08T19:52:20.990Z,79.60
2019-06-08T19:54:53.895Z,79.30
2019-06-08T19:57:23.876Z,79.20
2019-06-08T19:59:54.373Z,79.20
2019-06-08T20:02:27.004Z,79.20
2019-06-08T20:04:57.207Z,79.20
2019-06-08T20:07:28.074Z,79.20
2019-06-08T20:09:59.616Z,79.10
2019-06-08T20:12:30.345Z,79.20
2019-06-08T20:15:01.140Z,79.10
2019-06-08T20:17:34.363Z,79.10
2019-06-08T20:20:07.755Z,79.20
2019-06-08T20:22:38.726Z,79.10
2019-06-08T20:25:10.668Z,79.10
2019-06-08T20:27:43.308Z,79.10
2019-06-08T20:30:14.163Z,79.00
2019-06-08T20:32:44.937Z,79.10
2019-06-08T20:35:17.409Z,79.00
2019-06-08T20:37:50.507Z,79.00
2019-06-08T20:40:21.312Z,78.40
2019-06-08T20:42:54.574Z,78.70
2019-06-08T20:45:24.320Z,78.50
2019-06-08T20:47:55.035Z,78.30
2019-06-08T20:50:27.127Z,77.60
2019-06-08T20:52:57.900Z,78.30
2019-06-08T20:55:28.515Z,78.40
2019-06-08T20:57:58.976Z,77.80
2019-06-08T21:00:30.305Z,77.40
2019-06-08T21:03:02.996Z,76.80
2019-06-08T21:05:33.329Z,76.60
2019-06-08T21:08:05.108Z,76.70
2019-06-08T21:10:37.768Z,77.60
2019-06-08T21:13:07.704Z,77.60
2019-06-08T21:15:38.533Z,78.20
2019-06-08T21:18:10.434Z,78.70
2019-06-08T21:20:41.465Z,79.00
2019-06-08T21:23:12.496Z,79.00
2019-06-08T21:25:43.238Z,79.10
2019-06-08T21:28:13.838Z,79.10
2019-06-08T21:30:44.527Z,79.20
2019-06-08T21:33:16.310Z,78.60
2019-06-08T21:35:49.540Z,78.60
2019-06-08T21:38:23.985Z,78.30
2019-06-08T21:40:55.681Z,78.40
2019-06-08T21:43:27.713Z,78.40
2019-06-08T21:46:00.930Z,78.30
2019-06-08T21:48:30.003Z,78.50
2019-06-08T21:51:01.753Z,78.50
2019-06-08T21:53:32.468Z,78.60
2019-06-08T21:56:03.134Z,79.20
2019-06-08T21:58:33.756Z,79.40
2019-06-08T22:01:07.365Z,80.10
2019-06-08T22:03:38.277Z,80.50
2019-06-08T22:06:09.183Z,80.80
2019-06-08T22:08:39.991Z,80.90
2019-06-08T22:11:10.765Z,80.80
2019-06-08T22:13:41.457Z,80.80
2019-06-08T22:16:12.206Z,80.80
2019-06-08T22:18:43.049Z,80.60
2019-06-08T22:21:13.741Z,81.20
2019-06-08T22:23:44.350Z,81.10
2019-06-08T22:26:17.623Z,81.30
2019-06-08T22:28:48.212Z,81.10
2019-06-08T22:31:19.146Z,81.60
2019-06-08T22:33:49.981Z,82.30
2019-06-08T22:36:20.615Z,82.80
2019-06-08T22:38:52.827Z,83.30
2019-06-08T22:41:23.517Z,83.60
2019-06-08T22:43:54.954Z,83.50
2019-06-08T22:46:26.442Z,83.80
2019-06-08T22:49:00.327Z,83.60
2019-06-08T22:51:29.294Z,83.10
2019-06-08T22:54:01.138Z,82.40
2019-06-08T22:56:32.238Z,82.30
2019-06-08T22:59:04.746Z,81.80
2019-06-08T23:01:38.370Z,82.00
2019-06-08T23:04:09.056Z,82.40
2019-06-08T23:06:39.804Z,82.30
2019-06-08T23:09:10.428Z,82.40
2019-06-08T23:11:40.897Z,82.40
2019-06-08T23:14:13.416Z,82.40
2019-06-08T23:16:43.448Z,82.50
2019-06-08T23:19:14.108Z,83.30
2019-06-08T23:21:44.670Z,83.70
2019-06-08T23:24:15.407Z,83.80
2019-06-08T23:26:47.870Z,83.90
2019-06-08T23:29:18.075Z,84.00
2019-06-08T23:31:48.787Z,84.80
2019-06-08T23:34:22.438Z,85.30
2019-06-08T23:36:58.662Z,85.80
2019-06-08T23:39:23.773Z,86.10
2019-06-08T23:41:54.231Z,86.30
2019-06-08T23:44:24.944Z,87.00
2019-06-08T23:46:58.114Z,87.50
2019-06-08T23:49:28.036Z,87.60
2019-06-08T23:52:01.146Z,88.00
2019-06-08T23:54:31.349Z,88.00
2019-06-08T23:57:02.866Z,88.30
2019-06-08T23:59:37.064Z,88.80
